createdAt,value
2019-05-15T00:00:32.618Z,57.48
2019-05-15T00:01:30.555Z,57.68
2019-05-15T00:02:30.588Z,57.48
2019-05-15T00:03:30.559Z,57.68
2019-05-15T00:04:30.537Z,57.06
2019-05-15T00:05:30.546Z,56.68
2019-05-15T00:06:30.516Z,57.60
2019-05-15T00:07:30.498Z,57.60
2019-05-15T00:08:30.509Z,57.37
2019-05-15T00:09:30.482Z,57.50
2019-05-15T00:10:30.476Z,57.50
2019-05-15T00:11:30.466Z,57.29
2019-05-15T00:12:30.452Z,57.68
2019-05-15T00:13:30.456Z,57.92
2019-05-15T00:14:30.426Z,58.12
2019-05-15T00:15:30.410Z,57.81
2019-05-15T00:16:30.407Z,57.92
2019-05-15T00:17:30.394Z,57.92
2019-05-15T00:18:30.408Z,58.02
2019-05-15T00:19:30.376Z,57.92
2019-05-15T00:20:30.357Z,58.23
2019-05-15T00:21:30.350Z,58.02
2019-05-15T00:22:30.347Z,57.81
2019-05-15T00:23:30.351Z,58.12
2019-05-15T00:24:30.307Z,58.44
2019-05-15T00:25:30.292Z,58.44
2019-05-15T00:26:30.286Z,58.44
2019-05-15T00:27:30.268Z,57.81
2019-05-15T00:28:30.304Z,57.81
2019-05-15T00:29:30.259Z,57.94
2019-05-15T00:30:30.253Z,58.12
2019-05-15T00:31:30.253Z,57.94
2019-05-15T00:32:30.225Z,58.54
2019-05-15T00:33:30.235Z,58.54
2019-05-15T00:34:30.209Z,58.46
2019-05-15T00:35:30.721Z,58.46
2019-05-15T00:36:30.193Z,58.12
2019-05-15T00:37:30.164Z,59.08
2019-05-15T00:38:30.179Z,59.60
2019-05-15T00:39:30.149Z,59.60
2019-05-15T00:40:30.140Z,59.39
2019-05-15T00:41:30.148Z,58.98
2019-05-15T00:42:30.111Z,59.50
2019-05-15T00:43:30.141Z,59.63
2019-05-15T00:44:30.100Z,59.60
2019-05-15T00:45:30.122Z,59.50
2019-05-15T00:46:30.075Z,59.29
2019-05-15T00:47:30.056Z,59.60
2019-05-15T00:48:30.069Z,60.11
2019-05-15T00:49:30.038Z,59.70
2019-05-15T00:50:30.028Z,59.50
2019-05-15T00:51:30.035Z,58.98
2019-05-15T00:52:29.998Z,59.80
2019-05-15T00:53:30.037Z,59.39
2019-05-15T00:54:29.995Z,59.80
2019-05-15T00:55:29.980Z,59.08
2019-05-15T00:56:29.962Z,60.14
2019-05-15T00:57:29.953Z,59.63
2019-05-15T00:58:29.970Z,59.83
2019-05-15T00:59:30.215Z,60.35
2019-05-15T01:00:29.922Z,60.46
2019-05-15T01:01:29.902Z,59.94
2019-05-15T01:02:29.896Z,59.94
2019-05-15T01:03:29.907Z,60.04
2019-05-15T01:04:29.878Z,60.56
2019-05-15T01:05:29.862Z,60.97
2019-05-15T01:06:29.848Z,60.25
2019-05-15T01:07:29.843Z,60.69
2019-05-15T01:08:29.852Z,61.62
2019-05-15T01:09:29.827Z,61.10
2019-05-15T01:10:29.818Z,61.41
2019-05-15T01:11:29.805Z,60.89
2019-05-15T01:12:29.783Z,61.21
2019-05-15T01:13:29.804Z,60.82
2019-05-15T01:14:29.770Z,60.51
2019-05-15T01:15:29.762Z,61.24
2019-05-15T01:16:29.752Z,60.69
2019-05-15T01:17:29.732Z,61.10
2019-05-15T01:18:29.746Z,61.00
2019-05-15T01:19:29.711Z,60.51
2019-05-15T01:20:29.698Z,61.83
2019-05-15T01:21:29.689Z,61.65
2019-05-15T01:22:29.682Z,61.65
2019-05-15T01:23:29.690Z,61.44
2019-05-15T01:24:29.662Z,61.34
2019-05-15T01:25:29.646Z,61.24
2019-05-15T01:26:29.637Z,61.44
2019-05-15T01:27:29.627Z,61.55
2019-05-15T01:28:29.644Z,61.44
2019-05-15T01:29:40.915Z,61.34
2019-05-15T01:30:30.590Z,61.55
2019-05-15T01:31:29.608Z,61.65
2019-05-15T01:32:29.567Z,62.79
2019-05-15T01:33:29.566Z,62.37
2019-05-15T01:34:29.578Z,62.27
2019-05-15T01:35:29.533Z,62.51
2019-05-15T01:36:29.526Z,62.71
2019-05-15T01:37:29.503Z,62.61
2019-05-15T01:38:29.502Z,63.02
2019-05-15T01:39:29.507Z,62.92
2019-05-15T01:40:29.480Z,62.71
2019-05-15T01:41:29.473Z,63.02
2019-05-15T01:42:29.467Z,63.16
2019-05-15T01:43:29.531Z,62.95
2019-05-15T01:44:29.473Z,63.16
2019-05-15T01:45:29.419Z,63.47
2019-05-15T01:46:30.112Z,63.16
2019-05-15T01:47:29.433Z,63.26
2019-05-15T01:48:29.408Z,63.54
2019-05-15T01:49:29.404Z,63.23
2019-05-15T01:50:29.373Z,63.13
2019-05-15T01:51:29.373Z,63.13
2019-05-15T01:52:29.349Z,63.65
2019-05-15T01:53:29.342Z,63.23
2019-05-15T01:54:29.354Z,63.65
2019-05-15T01:55:29.313Z,62.92
2019-05-15T01:56:29.449Z,63.34
2019-05-15T01:57:29.297Z,63.34
2019-05-15T01:58:29.279Z,63.16
2019-05-15T01:59:29.351Z,63.57
2019-05-15T02:00:29.265Z,63.54
2019-05-15T02:01:29.255Z,63.54
2019-05-15T02:02:29.250Z,63.65
2019-05-15T02:03:29.233Z,63.54
2019-05-15T02:04:29.231Z,63.37
2019-05-15T02:05:29.209Z,63.37
2019-05-15T02:06:29.221Z,63.57
2019-05-15T02:07:29.181Z,63.57
2019-05-15T02:08:29.179Z,63.37
2019-05-15T02:09:29.185Z,63.37
2019-05-15T02:10:29.319Z,63.99
2019-05-15T02:11:29.158Z,63.99
2019-05-15T02:12:29.135Z,63.89
2019-05-15T02:13:29.122Z,63.78
2019-05-15T02:14:29.133Z,64.09
2019-05-15T02:15:29.102Z,64.30
2019-05-15T02:16:29.088Z,63.89
2019-05-15T02:17:29.082Z,64.09
2019-05-15T02:18:29.062Z,63.26
2019-05-15T02:19:29.094Z,63.89
2019-05-15T02:20:29.258Z,64.51
2019-05-15T02:21:29.085Z,63.99
2019-05-15T02:22:29.028Z,64.92
2019-05-15T02:23:29.018Z,63.99
2019-05-15T02:24:29.002Z,64.09
2019-05-15T02:25:29.005Z,63.89
2019-05-15T02:26:28.975Z,63.89
2019-05-15T02:27:29.575Z,63.68
2019-05-15T02:28:29.062Z,63.68
2019-05-15T02:29:28.946Z,63.99
2019-05-15T02:30:33.926Z,63.47
2019-05-15T02:31:30.478Z,63.89
2019-05-15T02:32:30.275Z,63.99
2019-05-15T02:33:30.059Z,64.09
2019-05-15T02:34:29.975Z,63.78
2019-05-15T02:35:29.605Z,64.30
2019-05-15T02:36:29.500Z,64.51
2019-05-15T02:37:29.588Z,64.61
2019-05-15T02:38:29.805Z,64.40
2019-05-15T02:39:29.194Z,64.72
2019-05-15T02:40:29.594Z,64.30
2019-05-15T02:41:29.861Z,65.26
2019-05-15T02:42:29.252Z,64.95
2019-05-15T02:43:29.770Z,65.60
2019-05-15T02:44:29.303Z,65.37
2019-05-15T02:45:30.167Z,65.70
2019-05-15T02:46:30.101Z,66.12
2019-05-15T02:47:29.221Z,66.75
2019-05-15T02:48:29.196Z,66.44
2019-05-15T02:49:30.254Z,67.30
2019-05-15T02:50:29.292Z,67.06
2019-05-15T02:51:29.954Z,67.61
2019-05-15T02:52:29.515Z,66.88
2019-05-15T02:53:29.994Z,66.67
2019-05-15T02:54:29.892Z,66.64
2019-05-15T02:55:29.692Z,67.19
2019-05-15T02:56:29.398Z,68.02
2019-05-15T02:57:29.984Z,68.02
2019-05-15T02:58:29.385Z,67.50
2019-05-15T02:59:29.243Z,66.99
2019-05-15T03:00:37.764Z,67.27
2019-05-15T03:01:29.617Z,67.71
2019-05-15T03:02:28.761Z,67.09
2019-05-15T03:03:29.521Z,67.79
2019-05-15T03:04:29.259Z,67.58
2019-05-15T03:05:29.489Z,66.99
2019-05-15T03:06:29.930Z,67.61
2019-05-15T03:07:29.492Z,68.02
2019-05-15T03:08:29.729Z,67.82
2019-05-15T03:09:29.710Z,67.68
2019-05-15T03:10:29.686Z,67.89
2019-05-15T03:11:29.429Z,67.27
2019-05-15T03:12:29.169Z,66.85
2019-05-15T03:13:29.973Z,67.16
2019-05-15T03:14:29.274Z,67.47
2019-05-15T03:15:29.132Z,67.47
2019-05-15T03:16:30.428Z,67.06
2019-05-15T03:17:29.668Z,66.96
2019-05-15T03:18:29.142Z,67.58
2019-05-15T03:19:29.882Z,68.10
2019-05-15T03:20:29.754Z,67.89
2019-05-15T03:21:29.519Z,67.99
2019-05-15T03:22:29.323Z,67.47
2019-05-15T03:23:29.589Z,67.68
2019-05-15T03:24:29.016Z,67.47
2019-05-15T03:25:29.737Z,67.34
2019-05-15T03:26:29.796Z,67.34
2019-05-15T03:27:30.334Z,67.79
2019-05-15T03:28:29.458Z,67.89
2019-05-15T03:29:29.229Z,67.47
2019-05-15T03:30:32.247Z,67.34
2019-05-15T03:31:50.597Z,67.16
2019-05-15T03:32:42.211Z,67.37
2019-05-15T03:33:35.705Z,67.37
2019-05-15T03:34:37.548Z,67.58
2019-05-15T03:35:32.644Z,67.16
2019-05-15T03:36:31.846Z,67.58
2019-05-15T03:37:33.297Z,67.92
2019-05-15T03:38:29.931Z,68.51
2019-05-15T03:39:29.655Z,68.02
2019-05-15T03:40:30.008Z,68.65
2019-05-15T03:41:29.843Z,68.54
2019-05-15T03:42:29.370Z,68.51
2019-05-15T03:43:29.194Z,68.54
2019-05-15T03:44:28.638Z,68.41
2019-05-15T03:45:29.652Z,68.41
2019-05-15T03:46:29.185Z,68.72
2019-05-15T03:47:30.181Z,68.20
2019-05-15T03:48:28.852Z,68.72
2019-05-15T03:49:29.432Z,68.72
2019-05-15T03:50:28.980Z,68.20
2019-05-15T03:51:28.934Z,68.20
2019-05-15T03:52:29.494Z,67.89
2019-05-15T03:53:29.836Z,67.47
2019-05-15T03:54:29.305Z,67.47
2019-05-15T03:55:29.588Z,67.47
2019-05-15T03:56:29.570Z,67.68
2019-05-15T03:57:30.418Z,67.58
2019-05-15T03:58:28.792Z,67.58
2019-05-15T03:59:29.541Z,67.68
2019-05-15T04:00:30.171Z,67.47
2019-05-15T04:01:33.548Z,67.79
2019-05-15T04:02:29.033Z,67.99
2019-05-15T04:03:29.965Z,67.58
2019-05-15T04:04:29.655Z,67.86
2019-05-15T04:05:29.350Z,67.65
2019-05-15T04:06:29.860Z,67.96
2019-05-15T04:07:29.211Z,67.76
2019-05-15T04:08:29.839Z,67.55
2019-05-15T04:09:29.382Z,67.47
2019-05-15T04:10:28.805Z,67.79
2019-05-15T04:11:29.440Z,68.17
2019-05-15T04:12:29.033Z,67.96
2019-05-15T04:13:30.048Z,67.47
2019-05-15T04:14:29.556Z,67.47
2019-05-15T04:15:30.182Z,67.99
2019-05-15T04:16:29.580Z,67.58
2019-05-15T04:17:29.473Z,67.99
2019-05-15T04:18:29.143Z,68.30
2019-05-15T04:19:29.614Z,68.20
2019-05-15T04:20:29.678Z,67.99
2019-05-15T04:21:30.340Z,67.58
2019-05-15T04:22:29.154Z,67.79
2019-05-15T04:23:30.083Z,67.65
2019-05-15T04:24:30.095Z,67.96
2019-05-15T04:25:29.740Z,67.96
2019-05-15T04:26:28.631Z,67.65
2019-05-15T04:27:29.035Z,67.24
2019-05-15T04:28:29.231Z,67.13
2019-05-15T04:29:28.992Z,67.24
2019-05-15T04:30:30.518Z,67.13
2019-05-15T04:31:35.411Z,67.03
2019-05-15T04:32:29.079Z,67.24
2019-05-15T04:33:29.411Z,66.93
2019-05-15T04:34:29.054Z,67.13
2019-05-15T04:35:28.925Z,67.34
2019-05-15T04:36:29.636Z,67.44
2019-05-15T04:37:29.868Z,67.65
2019-05-15T04:38:29.305Z,67.24
2019-05-15T04:39:29.641Z,67.20
2019-05-15T04:40:29.858Z,67.41
2019-05-15T04:41:29.901Z,67.13
2019-05-15T04:42:29.923Z,67.10
2019-05-15T04:43:30.264Z,66.99
2019-05-15T04:44:29.055Z,67.61
2019-05-15T04:45:34.416Z,66.68
2019-05-15T04:46:29.925Z,66.58
2019-05-15T04:47:30.271Z,66.68
2019-05-15T04:48:29.018Z,67.20
2019-05-15T04:49:29.052Z,67.10
2019-05-15T04:50:28.774Z,67.20
2019-05-15T04:51:30.447Z,67.17
2019-05-15T04:52:30.525Z,66.65
2019-05-15T04:53:32.751Z,66.47
2019-05-15T04:54:28.856Z,66.35
2019-05-15T04:55:28.967Z,66.03
2019-05-15T04:56:29.307Z,66.14
2019-05-15T04:57:33.462Z,66.24
2019-05-15T04:58:29.655Z,66.03
2019-05-15T04:59:30.032Z,65.41
2019-05-15T05:00:29.259Z,66.21
2019-05-15T05:01:28.844Z,65.38
2019-05-15T05:02:31.666Z,66.31
2019-05-15T05:03:29.188Z,66.00
2019-05-15T05:04:29.518Z,65.38
2019-05-15T05:05:29.376Z,65.17
2019-05-15T05:06:29.425Z,65.69
2019-05-15T05:07:29.574Z,65.38
2019-05-15T05:08:29.059Z,65.38
2019-05-15T05:09:28.878Z,65.48
2019-05-15T05:10:29.013Z,65.35
2019-05-15T05:11:28.776Z,65.66
2019-05-15T05:12:28.981Z,65.25
2019-05-15T05:13:28.631Z,65.25
2019-05-15T05:14:28.552Z,65.56
2019-05-15T05:15:29.268Z,65.56
2019-05-15T05:16:29.506Z,65.45
2019-05-15T05:17:28.850Z,65.32
2019-05-15T05:18:29.514Z,65.01
2019-05-15T05:19:28.567Z,65.01
2019-05-15T05:20:28.750Z,65.22
2019-05-15T05:21:27.849Z,64.90
2019-05-15T05:22:28.233Z,65.01
2019-05-15T05:23:28.355Z,65.08
2019-05-15T05:24:28.066Z,64.87
2019-05-15T05:25:27.994Z,65.19
2019-05-15T05:26:29.215Z,65.29
2019-05-15T05:27:28.868Z,64.46
2019-05-15T05:28:29.001Z,63.43
2019-05-15T05:29:28.014Z,63.60
2019-05-15T05:30:29.168Z,63.71
2019-05-15T05:31:29.065Z,63.92
2019-05-15T05:32:33.871Z,63.40
2019-05-15T05:33:28.631Z,63.60
2019-05-15T05:34:28.390Z,63.29
2019-05-15T05:35:27.902Z,63.19
2019-05-15T05:36:27.932Z,63.71
2019-05-15T05:37:27.974Z,63.68
2019-05-15T05:38:28.169Z,63.37
2019-05-15T05:39:29.277Z,63.68
2019-05-15T05:40:29.153Z,63.26
2019-05-15T05:41:28.089Z,63.26
2019-05-15T05:42:29.023Z,63.37
2019-05-15T05:43:26.866Z,63.26
2019-05-15T05:44:29.037Z,63.16
2019-05-15T05:45:28.703Z,62.75
2019-05-15T05:46:28.067Z,62.65
2019-05-15T05:47:28.718Z,62.85
2019-05-15T05:48:29.087Z,62.62
2019-05-15T05:49:28.770Z,62.75
2019-05-15T05:50:28.809Z,62.82
2019-05-15T05:51:28.198Z,62.93
2019-05-15T05:52:28.031Z,62.20
2019-05-15T05:53:28.657Z,62.17
2019-05-15T05:54:28.794Z,61.97
2019-05-15T05:55:28.739Z,62.72
2019-05-15T05:56:28.671Z,62.79
2019-05-15T05:57:27.961Z,62.90
2019-05-15T05:58:29.444Z,62.69
2019-05-15T05:59:28.395Z,62.07
2019-05-15T06:00:28.590Z,61.22
2019-05-15T06:01:28.245Z,60.49
2019-05-15T06:02:28.041Z,60.70
2019-05-15T06:03:28.066Z,61.19
2019-05-15T06:04:27.900Z,61.29
2019-05-15T06:05:28.127Z,61.08
2019-05-15T06:06:29.094Z,60.77
2019-05-15T06:07:27.929Z,60.26
2019-05-15T06:08:28.254Z,60.23
2019-05-15T06:09:27.786Z,60.44
2019-05-15T06:10:28.967Z,60.44
2019-05-15T06:11:27.733Z,60.44
2019-05-15T06:12:28.168Z,61.36
2019-05-15T06:13:28.921Z,60.44
2019-05-15T06:14:28.696Z,60.54
2019-05-15T06:15:28.526Z,59.79
2019-05-15T06:16:28.370Z,60.00
2019-05-15T06:17:28.053Z,60.31
2019-05-15T06:18:28.114Z,60.17
2019-05-15T06:19:27.798Z,59.45
2019-05-15T06:20:28.297Z,59.35
2019-05-15T06:21:28.398Z,59.56
2019-05-15T06:22:27.675Z,59.77
2019-05-15T06:23:32.138Z,59.56
2019-05-15T06:24:30.545Z,59.35
2019-05-15T06:25:30.250Z,59.66
2019-05-15T06:26:28.269Z,59.35
2019-05-15T06:27:29.877Z,59.45
2019-05-15T06:28:28.660Z,59.01
2019-05-15T06:29:28.256Z,58.91
2019-05-15T06:30:29.874Z,58.40
2019-05-15T06:31:28.106Z,58.09
2019-05-15T06:32:28.847Z,58.40
2019-05-15T06:33:27.812Z,57.86
2019-05-15T06:34:28.443Z,57.86
2019-05-15T06:35:30.907Z,57.54
2019-05-15T06:36:28.838Z,58.06
2019-05-15T06:37:28.529Z,58.14
2019-05-15T06:38:30.584Z,57.52
2019-05-15T06:39:28.265Z,57.42
2019-05-15T06:40:28.746Z,56.98
2019-05-15T06:41:28.478Z,57.18
2019-05-15T06:42:28.346Z,57.18
2019-05-15T06:43:28.085Z,56.77
2019-05-15T06:44:28.062Z,55.82
2019-05-15T06:45:28.345Z,56.23
2019-05-15T06:46:28.147Z,54.36
2019-05-15T06:47:28.360Z,53.77
2019-05-15T06:48:26.106Z,53.97
2019-05-15T06:49:28.473Z,52.51
2019-05-15T06:50:26.078Z,52.20
2019-05-15T06:51:26.068Z,51.56
2019-05-15T06:52:28.302Z,50.12
2019-05-15T06:53:26.054Z,50.40
2019-05-15T06:54:28.340Z,50.10
2019-05-15T06:55:26.024Z,49.89
2019-05-15T06:56:28.157Z,50.40
2019-05-15T06:57:28.573Z,50.61
2019-05-15T06:58:25.998Z,50.28
2019-05-15T06:59:26.008Z,50.18
2019-05-15T07:00:28.234Z,49.87
2019-05-15T07:01:25.963Z,49.43
2019-05-15T07:02:28.359Z,47.69
2019-05-15T07:03:29.051Z,47.89
2019-05-15T07:04:25.945Z,47.28
2019-05-15T07:05:25.921Z,46.67
2019-05-15T07:06:25.902Z,46.69
2019-05-15T07:07:25.915Z,47.09
2019-05-15T07:08:25.876Z,48.13
2019-05-15T07:09:28.404Z,47.30
2019-05-15T07:10:28.658Z,47.92
2019-05-15T07:11:28.063Z,47.51
2019-05-15T07:12:27.965Z,47.20
2019-05-15T07:13:25.867Z,46.89
2019-05-15T07:14:25.842Z,45.97
2019-05-15T07:15:27.872Z,46.28
2019-05-15T07:16:28.215Z,46.17
2019-05-15T07:17:25.791Z,46.07
2019-05-15T07:18:28.164Z,45.87
2019-05-15T07:19:28.319Z,45.45
2019-05-15T07:20:28.358Z,45.04
2019-05-15T07:21:25.758Z,45.04
2019-05-15T07:22:25.724Z,45.04
2019-05-15T07:23:28.114Z,44.71
2019-05-15T07:24:25.709Z,44.62
2019-05-15T07:25:25.733Z,44.74
2019-05-15T07:26:25.678Z,44.33
2019-05-15T07:27:28.166Z,45.03
2019-05-15T07:28:25.670Z,44.71
2019-05-15T07:29:25.710Z,45.23
2019-05-15T07:30:25.654Z,44.51
2019-05-15T07:31:25.618Z,44.00
2019-05-15T07:32:28.386Z,43.67
2019-05-15T07:33:38.861Z,42.95
2019-05-15T07:34:28.366Z,43.16
2019-05-15T07:35:25.634Z,42.85
2019-05-15T07:36:25.584Z,43.77
2019-05-15T07:37:25.560Z,43.16
2019-05-15T07:38:25.542Z,43.26
2019-05-15T07:39:25.573Z,42.13
2019-05-15T07:40:25.559Z,42.42
2019-05-15T07:41:25.501Z,41.91
2019-05-15T07:42:25.502Z,41.80
2019-05-15T07:43:27.924Z,41.80
2019-05-15T07:44:28.046Z,41.39
2019-05-15T07:45:28.116Z,40.78
2019-05-15T07:46:25.460Z,40.99
2019-05-15T07:47:25.457Z,40.27
2019-05-15T07:48:25.456Z,39.86
2019-05-15T07:49:25.432Z,40.37
2019-05-15T07:50:25.436Z,41.19
2019-05-15T07:51:25.417Z,40.37
2019-05-15T07:52:25.387Z,40.68
2019-05-15T07:53:25.374Z,40.99
2019-05-15T07:54:25.363Z,41.19
2019-05-15T07:55:25.376Z,40.45
2019-05-15T07:56:25.361Z,40.47
2019-05-15T07:57:25.332Z,40.27
2019-05-15T07:58:27.660Z,40.15
2019-05-15T07:59:25.307Z,40.66
2019-05-15T08:00:25.321Z,40.86
2019-05-15T08:01:25.299Z,40.66
2019-05-15T08:02:25.288Z,40.66
2019-05-15T08:03:25.267Z,40.45
2019-05-15T08:04:29.126Z,40.86
2019-05-15T08:05:28.437Z,40.56
2019-05-15T08:06:25.239Z,40.66
2019-05-15T08:07:25.226Z,41.15
2019-05-15T08:08:25.230Z,40.74
2019-05-15T08:09:25.205Z,40.64
2019-05-15T08:10:25.214Z,40.33
2019-05-15T08:11:25.189Z,40.62
2019-05-15T08:12:25.178Z,40.72
2019-05-15T08:13:25.152Z,40.21
2019-05-15T08:14:25.158Z,40.93
2019-05-15T08:15:25.170Z,41.64
2019-05-15T08:16:25.128Z,40.62
2019-05-15T08:17:25.120Z,42.03
2019-05-15T08:18:25.108Z,40.60
2019-05-15T08:19:25.103Z,40.60
2019-05-15T08:20:25.079Z,41.11
2019-05-15T08:21:25.095Z,41.11
2019-05-15T08:22:25.057Z,40.60
2019-05-15T08:23:25.045Z,40.09
2019-05-15T08:24:25.037Z,40.81
2019-05-15T08:25:32.349Z,41.11
2019-05-15T08:26:28.182Z,39.78
2019-05-15T08:27:25.009Z,40.89
2019-05-15T08:28:24.999Z,40.89
2019-05-15T08:29:24.977Z,40.89
2019-05-15T08:30:24.964Z,40.79
2019-05-15T08:31:25.054Z,38.95
2019-05-15T08:32:24.977Z,39.75
2019-05-15T08:33:24.936Z,40.26
2019-05-15T08:34:24.925Z,39.14
2019-05-15T08:35:24.916Z,38.95
2019-05-15T08:36:24.932Z,39.05
2019-05-15T08:37:24.881Z,37.62
2019-05-15T08:38:24.881Z,38.11
2019-05-15T08:39:24.887Z,38.73
2019-05-15T08:40:24.855Z,38.11
2019-05-15T08:41:24.861Z,37.19
2019-05-15T08:42:24.832Z,37.09
2019-05-15T08:43:24.838Z,36.58
2019-05-15T08:44:24.814Z,36.56
2019-05-15T08:45:24.800Z,37.07
2019-05-15T08:46:24.818Z,36.66
2019-05-15T08:47:24.775Z,35.75
2019-05-15T08:48:24.819Z,35.34
2019-05-15T08:49:24.755Z,35.03
2019-05-15T08:50:24.751Z,35.34
2019-05-15T08:51:24.763Z,35.85
2019-05-15T08:52:24.721Z,35.34
2019-05-15T08:53:24.716Z,35.95
2019-05-15T08:54:24.739Z,36.15
2019-05-15T08:55:24.688Z,35.46
2019-05-15T08:56:24.700Z,35.76
2019-05-15T08:57:24.679Z,35.97
2019-05-15T08:58:24.672Z,36.27
2019-05-15T08:59:24.647Z,35.85
2019-05-15T09:00:24.642Z,35.54
2019-05-15T09:01:24.652Z,35.54
2019-05-15T09:02:24.627Z,35.85
2019-05-15T09:03:24.613Z,34.72
2019-05-15T09:04:30.375Z,35.64
2019-05-15T09:05:25.583Z,35.75
2019-05-15T09:06:24.592Z,35.11
2019-05-15T09:07:24.568Z,35.44
2019-05-15T09:08:24.549Z,35.54
2019-05-15T09:09:24.531Z,35.54
2019-05-15T09:10:24.563Z,35.64
2019-05-15T09:11:24.541Z,35.54
2019-05-15T09:12:24.507Z,35.75
2019-05-15T09:13:24.494Z,36.15
2019-05-15T09:14:24.490Z,35.75
2019-05-15T09:15:24.490Z,36.56
2019-05-15T09:16:24.482Z,36.15
2019-05-15T09:17:24.501Z,36.56
2019-05-15T09:18:24.428Z,36.46
2019-05-15T09:19:24.445Z,36.87
2019-05-15T09:20:24.412Z,36.87
2019-05-15T09:21:24.437Z,36.56
2019-05-15T09:22:24.490Z,36.65
2019-05-15T09:23:24.395Z,36.34
2019-05-15T09:24:24.390Z,36.75
2019-05-15T09:25:24.367Z,37.16
2019-05-15T09:26:24.397Z,37.57
2019-05-15T09:27:24.349Z,36.75
2019-05-15T09:28:24.323Z,35.83
2019-05-15T09:29:24.314Z,36.44
2019-05-15T09:30:24.312Z,35.63
2019-05-15T09:31:24.305Z,36.55
2019-05-15T09:32:24.275Z,36.75
2019-05-15T09:33:24.271Z,36.94
2019-05-15T09:34:24.264Z,36.43
2019-05-15T09:35:24.243Z,36.73
2019-05-15T09:36:24.255Z,36.83
2019-05-15T09:37:24.218Z,36.31
2019-05-15T09:38:24.212Z,36.31
2019-05-15T09:39:24.196Z,36.31
2019-05-15T09:40:37.900Z,36.92
2019-05-15T09:41:25.307Z,36.92
2019-05-15T09:42:24.180Z,36.92
2019-05-15T09:43:24.152Z,37.43
2019-05-15T09:44:24.141Z,37.12
2019-05-15T09:45:24.144Z,37.02
2019-05-15T09:46:24.160Z,37.43
2019-05-15T09:47:24.118Z,36.82
2019-05-15T09:48:24.098Z,36.80
2019-05-15T09:49:24.107Z,36.60
2019-05-15T09:50:24.134Z,37.21
2019-05-15T09:51:24.087Z,37.62
2019-05-15T09:52:24.065Z,36.40
2019-05-15T09:53:24.060Z,36.60
2019-05-15T09:54:25.710Z,37.10
2019-05-15T09:55:24.021Z,36.70
2019-05-15T09:56:24.059Z,35.68
2019-05-15T09:57:23.999Z,36.08
2019-05-15T09:58:23.996Z,37.01
2019-05-15T09:59:23.993Z,36.40
2019-05-15T10:00:23.979Z,35.66
2019-05-15T10:01:24.041Z,35.58
2019-05-15T10:02:23.989Z,36.58
2019-05-15T10:03:23.958Z,36.58
2019-05-15T10:04:23.937Z,35.86
2019-05-15T10:05:23.911Z,36.38
2019-05-15T10:06:23.910Z,36.58
2019-05-15T10:07:23.917Z,37.19
2019-05-15T10:08:23.901Z,36.88
2019-05-15T10:09:23.898Z,37.29
2019-05-15T10:10:23.865Z,38.11
2019-05-15T10:11:23.841Z,36.05
2019-05-15T10:12:23.859Z,37.07
2019-05-15T10:13:23.841Z,36.97
2019-05-15T10:14:23.812Z,36.46
2019-05-15T10:15:23.803Z,36.16
2019-05-15T10:16:23.792Z,36.65
2019-05-15T10:17:23.807Z,37.16
2019-05-15T10:18:23.766Z,36.87
2019-05-15T10:19:23.813Z,36.77
2019-05-15T10:20:23.737Z,36.14
2019-05-15T10:21:28.940Z,37.17
2019-05-15T10:22:24.746Z,36.87
2019-05-15T10:23:23.719Z,36.46
2019-05-15T10:24:23.704Z,36.24
2019-05-15T10:25:23.695Z,36.97
2019-05-15T10:26:23.701Z,37.07
2019-05-15T10:27:23.682Z,36.77
2019-05-15T10:28:23.660Z,37.05
2019-05-15T10:29:23.648Z,37.68
2019-05-15T10:30:23.633Z,37.46
2019-05-15T10:31:23.624Z,36.87
2019-05-15T10:32:23.661Z,37.38
2019-05-15T10:33:23.609Z,37.05
2019-05-15T10:34:23.592Z,36.95
2019-05-15T10:35:28.070Z,36.75
2019-05-15T10:36:24.566Z,36.36
2019-05-15T10:37:23.581Z,36.85
2019-05-15T10:38:23.554Z,37.26
2019-05-15T10:39:23.565Z,37.87
2019-05-15T10:40:23.537Z,36.95
2019-05-15T10:41:23.516Z,36.95
2019-05-15T10:42:23.518Z,36.55
2019-05-15T10:43:23.487Z,37.87
2019-05-15T10:44:23.483Z,37.66
2019-05-15T10:45:23.464Z,37.97
2019-05-15T10:46:23.452Z,37.66
2019-05-15T10:47:23.540Z,37.87
2019-05-15T10:48:23.444Z,37.46
2019-05-15T10:49:23.439Z,37.77
2019-05-15T10:50:23.417Z,37.77
2019-05-15T10:51:24.309Z,37.56
2019-05-15T10:52:23.433Z,37.66
2019-05-15T10:53:23.380Z,37.77
2019-05-15T10:54:23.379Z,37.97
2019-05-15T10:55:23.354Z,38.48
2019-05-15T10:56:23.362Z,38.17
2019-05-15T10:57:23.362Z,38.58
2019-05-15T10:58:23.357Z,37.56
2019-05-15T10:59:23.318Z,37.66
2019-05-15T11:00:23.326Z,37.56
2019-05-15T11:01:23.310Z,37.46
2019-05-15T11:02:23.285Z,37.26
2019-05-15T11:03:23.299Z,37.46
2019-05-15T11:04:23.259Z,37.46
2019-05-15T11:05:37.357Z,37.46
2019-05-15T11:06:24.237Z,37.56
2019-05-15T11:07:23.224Z,37.16
2019-05-15T11:08:23.233Z,38.07
2019-05-15T11:09:23.196Z,37.56
2019-05-15T11:10:23.192Z,37.46
2019-05-15T11:11:23.197Z,37.46
2019-05-15T11:12:23.173Z,37.56
2019-05-15T11:13:23.185Z,37.66
2019-05-15T11:14:23.143Z,37.48
2019-05-15T11:15:23.148Z,38.78
2019-05-15T11:16:23.127Z,38.80
2019-05-15T11:17:23.139Z,37.58
2019-05-15T11:18:23.229Z,37.26
2019-05-15T11:19:23.083Z,38.19
2019-05-15T11:20:23.081Z,37.46
2019-05-15T11:21:23.066Z,37.99
2019-05-15T11:22:23.098Z,38.89
2019-05-15T11:23:23.133Z,37.46
2019-05-15T11:24:23.045Z,38.48
2019-05-15T11:25:23.033Z,38.68
2019-05-15T11:26:23.134Z,37.97
2019-05-15T11:27:23.004Z,37.16
2019-05-15T11:28:23.016Z,38.89
2019-05-15T11:29:23.109Z,38.80
2019-05-15T11:30:22.980Z,38.68
2019-05-15T11:31:24.788Z,38.38
2019-05-15T11:32:22.949Z,38.78
2019-05-15T11:33:22.965Z,40.03
2019-05-15T11:34:22.937Z,39.40
2019-05-15T11:35:22.934Z,38.58
2019-05-15T11:36:22.891Z,39.09
2019-05-15T11:37:22.885Z,38.68
2019-05-15T11:38:23.372Z,38.68
2019-05-15T11:39:22.877Z,38.99
2019-05-15T11:40:22.863Z,39.09
2019-05-15T11:41:22.845Z,38.28
2019-05-15T11:42:22.839Z,38.68
2019-05-15T11:43:22.858Z,38.76
2019-05-15T11:44:22.809Z,38.76
2019-05-15T11:45:22.813Z,38.87
2019-05-15T11:46:25.680Z,38.97
2019-05-15T11:47:23.777Z,39.17
2019-05-15T11:48:22.796Z,38.56
2019-05-15T11:49:22.754Z,38.67
2019-05-15T11:50:22.758Z,38.56
2019-05-15T11:51:22.745Z,38.14
2019-05-15T11:52:22.733Z,38.87
2019-05-15T11:53:22.745Z,38.75
2019-05-15T11:54:22.699Z,39.46
2019-05-15T11:55:22.713Z,39.26
2019-05-15T11:56:22.709Z,38.65
2019-05-15T11:57:37.156Z,38.32
2019-05-15T11:58:23.682Z,39.36
2019-05-15T11:59:22.669Z,38.12
2019-05-15T12:00:27.259Z,38.63
2019-05-15T12:01:23.628Z,37.92
2019-05-15T12:02:22.634Z,37.41
2019-05-15T12:03:24.835Z,37.71
2019-05-15T12:04:29.762Z,37.30
2019-05-15T12:05:23.576Z,38.12
2019-05-15T12:06:23.126Z,37.51
2019-05-15T12:07:22.562Z,37.41
2019-05-15T12:08:22.578Z,38.43
2019-05-15T12:09:22.537Z,38.02
2019-05-15T12:10:22.575Z,38.43
2019-05-15T12:11:33.301Z,37.41
2019-05-15T12:12:23.522Z,37.92
2019-05-15T12:13:22.534Z,37.41
2019-05-15T12:14:22.501Z,37.41
2019-05-15T12:15:22.460Z,37.61
2019-05-15T12:16:22.510Z,37.00
2019-05-15T12:17:22.445Z,37.00
2019-05-15T12:18:22.466Z,37.10
2019-05-15T12:19:22.424Z,37.21
2019-05-15T12:20:22.422Z,37.43
2019-05-15T12:21:22.399Z,37.61
2019-05-15T12:22:22.396Z,37.41
2019-05-15T12:23:22.404Z,36.60
2019-05-15T12:24:22.369Z,37.10
2019-05-15T12:25:22.363Z,36.60
2019-05-15T12:26:22.339Z,37.30
2019-05-15T12:27:22.342Z,37.41
2019-05-15T12:28:22.352Z,37.21
2019-05-15T12:29:22.325Z,36.80
2019-05-15T12:30:22.311Z,35.78
2019-05-15T12:31:24.752Z,36.27
2019-05-15T12:32:31.275Z,35.56
2019-05-15T12:33:23.293Z,36.27
2019-05-15T12:34:22.304Z,36.68
2019-05-15T12:35:22.257Z,36.99
2019-05-15T12:36:45.360Z,36.38
2019-05-15T12:37:23.222Z,36.17
2019-05-15T12:38:22.297Z,35.77
2019-05-15T12:39:22.371Z,36.38
2019-05-15T13:00:22.967Z,39.22
2019-05-15T13:01:22.109Z,39.93
2019-05-15T13:02:21.942Z,40.14
2019-05-15T13:03:21.928Z,41.66
2019-05-15T13:04:21.984Z,41.86
2019-05-15T13:05:21.914Z,41.46
2019-05-15T13:06:21.897Z,40.84
2019-05-15T13:07:21.881Z,40.44
2019-05-15T13:08:21.883Z,41.35
2019-05-15T13:09:21.906Z,40.34
2019-05-15T13:10:21.857Z,40.03
2019-05-15T13:11:21.841Z,39.62
2019-05-15T13:12:21.828Z,39.93